sensor_id;sensor_type;location;lat;lon;timestamp;temperature;humidity
1578;DHT22;57623;53.608;10.004;2024-01-30T00:00:24;5.60;99.90
1578;DHT22;57623;53.608;10.004;2024-01-30T00:02:52;5.60;99.90
1578;DHT22;57623;53.608;10.004;2024-01-30T00:05:20;5.50;99.90
1578;DHT22;57623;53.608;10.004;2024-01-30T00:07:48;5.50;99.90
1578;DHT22;57623;53.608;10.004;2024-01-30T00:10:16;5.50;99.90
1578;DHT22;57623;53.608;10.004;2024-01-30T00:12:45;5.40;99.90
1578;DHT22;57623;53.608;10.004;2024-01-30T00:15:13;5.40;99.90
1578;DHT22;57623;53.608;10.004;2024-01-30T00:17:41;5.40;99.90
1578;DHT22;57623;53.608;10.004;2024-01-30T00:20:10;5.40;99.90
1578;DHT22;57623;53.608;10.004;2024-01-30T00:22:39;5.30;99.90
1578;DHT22;57623;53.608;10.004;2024-01-30T00:25:07;5.30;99.90
1578;DHT22;57623;53.608;10.004;2024-01-30T00:27:35;5.30;99.90
1578;DHT22;57623;53.608;10.004;2024-01-30T00:30:06;5.30;99.90
1578;DHT22;57623;53.608;10.004;2024-01-30T00:32:34;5.30;99.90
1578;DHT22;57623;53.608;10.004;2024-01-30T00:35:02;5.30;99.90
1578;DHT22;57623;53.608;10.004;2024-01-30T00:37:31;5.30;99.90
1578;DHT22;57623;53.608;10.004;2024-01-30T00:39:59;5.30;99.90
1578;DHT22;57623;53.608;10.004;2024-01-30T00:42:27;5.30;99.90
1578;DHT22;57623;53.608;10.004;2024-01-30T00:44:55;5.20;99.90
1578;DHT22;57623;53.608;10.004;2024-01-30T00:47:24;5.20;99.90
1578;DHT22;57623;53.608;10.004;2024-01-30T00:49:52;5.20;99.90
1578;DHT22;57623;53.608;10.004;2024-01-30T00:52:21;5.10;99.90
1578;DHT22;57623;53.608;10.004;2024-01-30T00:54:49;5.10;99.90
1578;DHT22;57623;53.608;10.004;2024-01-30T00:57:17;5.10;99.90
1578;DHT22;57623;53.608;10.004;2024-01-30T00:59:45;5.10;99.90
1578;DHT22;57623;53.608;10.004;2024-01-30T01:02:13;5.10;99.90
1578;DHT22;57623;53.608;10.004;2024-01-30T01:04:45;5.00;99.90
1578;DHT22;57623;53.608;10.004;2024-01-30T01:07:13;5.00;99.90
1578;DHT22;57623;53.608;10.004;2024-01-30T01:09:41;5.00;99.90
1578;DHT22;57623;53.608;10.004;2024-01-30T01:12:09;5.00;99.90
1578;DHT22;57623;53.608;10.004;2024-01-30T01:14:37;5.00;99.90
1578;DHT22;57623;53.608;10.004;2024-01-30T01:17:05;4.90;99.90
1578;DHT22;57623;53.608;10.004;2024-01-30T01:19:33;4.90;99.90
1578;DHT22;57623;53.608;10.004;2024-01-30T01:22:02;4.90;99.90
1578;DHT22;57623;53.608;10.004;2024-01-30T01:24:31;4.90;99.90
1578;DHT22;57623;53.608;10.004;2024-01-30T01:26:59;4.90;99.90
1578;DHT22;57623;53.608;10.004;2024-01-30T01:29:27;4.90;99.90
1578;DHT22;57623;53.608;10.004;2024-01-30T01:31:56;4.90;99.90
1578;DHT22;57623;53.608;10.004;2024-01-30T01:34:24;4.90;99.90
1578;DHT22;57623;53.608;10.004;2024-01-30T01:36:56;4.90;99.90
1578;DHT22;57623;53.608;10.004;2024-01-30T01:39:26;4.90;99.90
1578;DHT22;57623;53.608;10.004;2024-01-30T01:41:54;4.90;99.90
1578;DHT22;57623;53.608;10.004;2024-01-30T01:44:21;4.90;99.90
1578;DHT22;57623;53.608;10.004;2024-01-30T01:46:50;4.90;99.90
1578;DHT22;57623;53.608;10.004;2024-01-30T01:49:20;4.90;99.90
1578;DHT22;57623;53.608;10.004;2024-01-30T01:51:49;4.90;99.90
1578;DHT22;57623;53.608;10.004;2024-01-30T01:54:18;4.90;99.90
1578;DHT22;57623;53.608;10.004;2024-01-30T01:56:48;5.00;99.90
1578;DHT22;57623;53.608;10.004;2024-01-30T01:59:16;5.00;99.90
1578;DHT22;57623;53.608;10.004;2024-01-30T02:01:45;5.00;99.90
1578;DHT22;57623;53.608;10.004;2024-01-30T02:04:16;5.00;99.90
1578;DHT22;57623;53.608;10.004;2024-01-30T02:06:44;5.00;99.90
1578;DHT22;57623;53.608;10.004;2024-01-30T02:09:12;5.00;99.90
1578;DHT22;57623;53.608;10.004;2024-01-30T02:11:41;5.00;99.90
1578;DHT22;57623;53.608;10.004;2024-01-30T02:14:10;5.00;99.90
1578;DHT22;57623;53.608;10.004;2024-01-30T02:16:38;5.00;99.90
1578;DHT22;57623;53.608;10.004;2024-01-30T02:19:06;5.00;99.90
1578;DHT22;57623;53.608;10.004;2024-01-30T02:21:36;5.00;99.90
1578;DHT22;57623;53.608;10.004;2024-01-30T02:24:04;5.00;99.90
1578;DHT22;57623;53.608;10.004;2024-01-30T02:26:33;5.10;99.90
1578;DHT22;57623;53.608;10.004;2024-01-30T02:29:01;5.00;99.90
1578;DHT22;57623;53.608;10.004;2024-01-30T02:31:29;5.00;99.90
1578;DHT22;57623;53.608;10.004;2024-01-30T02:33:57;5.10;99.90
1578;DHT22;57623;53.608;10.004;2024-01-30T02:36:25;5.10;99.90
1578;DHT22;57623;53.608;10.004;2024-01-30T02:38:54;5.10;99.90
1578;DHT22;57623;53.608;10.004;2024-01-30T02:41:22;5.10;99.90
1578;DHT22;57623;53.608;10.004;2024-01-30T02:43:50;5.10;99.90
1578;DHT22;57623;53.608;10.004;2024-01-30T02:46:18;5.10;99.90
1578;DHT22;57623;53.608;10.004;2024-01-30T02:48:46;5.10;99.90
1578;DHT22;57623;53.608;10.004;2024-01-30T02:51:14;5.10;99.90
1578;DHT22;57623;53.608;10.004;2024-01-30T02:53:42;5.10;99.90
1578;DHT22;57623;53.608;10.004;2024-01-30T02:56:12;5.10;99.90
1578;DHT22;57623;53.608;10.004;2024-01-30T02:58:40;5.10;99.90
1578;DHT22;57623;53.608;10.004;2024-01-30T03:01:09;5.10;99.90
1578;DHT22;57623;53.608;10.004;2024-01-30T03:03:37;5.10;99.90
1578;DHT22;57623;53.608;10.004;2024-01-30T03:06:06;5.10;99.90
1578;DHT22;57623;53.608;10.004;2024-01-30T03:08:35;5.10;99.90
1578;DHT22;57623;53.608;10.004;2024-01-30T03:11:03;5.10;99.90
1578;DHT22;57623;53.608;10.004;2024-01-30T03:13:32;5.00;99.90
1578;DHT22;57623;53.608;10.004;2024-01-30T03:16:00;5.00;99.90
1578;DHT22;57623;53.608;10.004;2024-01-30T03:18:28;5.00;99.90
1578;DHT22;57623;53.608;10.004;2024-01-30T03:20:56;5.00;99.90
1578;DHT22;57623;53.608;10.004;2024-01-30T03:23:24;5.00;99.90
1578;DHT22;57623;53.608;10.004;2024-01-30T03:25:52;5.00;99.90
1578;DHT22;57623;53.608;10.004;2024-01-30T03:28:20;5.00;99.90
1578;DHT22;57623;53.608;10.004;2024-01-30T03:30:49;5.00;99.90
1578;DHT22;57623;53.608;10.004;2024-01-30T03:33:17;5.00;99.90
1578;DHT22;57623;53.608;10.004;2024-01-30T03:35:45;5.00;99.90
1578;DHT22;57623;53.608;10.004;2024-01-30T03:38:13;4.90;99.90
1578;DHT22;57623;53.608;10.004;2024-01-30T03:40:41;5.00;99.90
1578;DHT22;57623;53.608;10.004;2024-01-30T03:43:09;5.00;99.90
1578;DHT22;57623;53.608;10.004;2024-01-30T03:45:37;5.00;99.90
1578;DHT22;57623;53.608;10.004;2024-01-30T03:48:07;5.00;99.90
1578;DHT22;57623;53.608;10.004;2024-01-30T03:50:35;5.00;99.90
1578;DHT22;57623;53.608;10.004;2024-01-30T03:53:03;5.00;99.90
1578;DHT22;57623;53.608;10.004;2024-01-30T03:55:31;5.00;99.90
1578;DHT22;57623;53.608;10.004;2024-01-30T03:57:59;5.00;99.90
1578;DHT22;57623;53.608;10.004;2024-01-30T04:00:27;5.00;99.90
1578;DHT22;57623;53.608;10.004;2024-01-30T04:02:55;5.00;99.90
1578;DHT22;57623;53.608;10.004;2024-01-30T04:05:25;5.00;99.90
1578;DHT22;57623;53.608;10.004;2024-01-30T04:07:53;5.00;99.90
1578;DHT22;57623;53.608;10.004;2024-01-30T04:10:20;5.00;99.90
1578;DHT22;57623;53.608;10.004;2024-01-30T04:12:49;5.00;99.90
1578;DHT22;57623;53.608;10.004;2024-01-30T04:15:17;4.90;99.90
1578;DHT22;57623;53.608;10.004;2024-01-30T04:17:44;5.00;99.90
1578;DHT22;57623;53.608;10.004;2024-01-30T04:20:14;5.00;99.90
1578;DHT22;57623;53.608;10.004;2024-01-30T04:22:45;4.90;99.90
1578;DHT22;57623;53.608;10.004;2024-01-30T04:25:13;5.00;99.90
1578;DHT22;57623;53.608;10.004;2024-01-30T04:27:41;4.90;99.90
1578;DHT22;57623;53.608;10.004;2024-01-30T04:30:10;4.90;99.90
1578;DHT22;57623;53.608;10.004;2024-01-30T04:32:38;4.90;99.90
1578;DHT22;57623;53.608;10.004;2024-01-30T04:35:07;4.90;99.90
1578;DHT22;57623;53.608;10.004;2024-01-30T04:37:38;5.00;99.90
1578;DHT22;57623;53.608;10.004;2024-01-30T04:40:08;4.90;99.90
1578;DHT22;57623;53.608;10.004;2024-01-30T04:42:36;4.90;99.90
1578;DHT22;57623;53.608;10.004;2024-01-30T04:45:06;4.90;99.90
1578;DHT22;57623;53.608;10.004;2024-01-30T04:47:34;4.90;99.90
1578;DHT22;57623;53.608;10.004;2024-01-30T04:50:02;4.90;99.90
1578;DHT22;57623;53.608;10.004;2024-01-30T04:52:31;4.90;99.90
1578;DHT22;57623;53.608;10.004;2024-01-30T04:54:59;4.80;99.90
1578;DHT22;57623;53.608;10.004;2024-01-30T04:57:29;4.80;99.90
1578;DHT22;57623;53.608;10.004;2024-01-30T04:59:57;4.80;99.90
1578;DHT22;57623;53.608;10.004;2024-01-30T05:02:25;4.80;99.90
1578;DHT22;57623;53.608;10.004;2024-01-30T05:04:53;4.80;99.90
1578;DHT22;57623;53.608;10.004;2024-01-30T05:07:21;4.80;99.90
1578;DHT22;57623;53.608;10.004;2024-01-30T05:09:49;4.80;99.90
1578;DHT22;57623;53.608;10.004;2024-01-30T05:12:18;4.80;99.90
1578;DHT22;57623;53.608;10.004;2024-01-30T05:14:48;4.80;99.90
1578;DHT22;57623;53.608;10.004;2024-01-30T05:17:16;4.80;99.90
1578;DHT22;57623;53.608;10.004;2024-01-30T05:19:44;4.80;99.90
1578;DHT22;57623;53.608;10.004;2024-01-30T05:22:12;4.80;99.90
1578;DHT22;57623;53.608;10.004;2024-01-30T05:24:42;4.80;99.90
1578;DHT22;57623;53.608;10.004;2024-01-30T05:27:10;4.80;99.90
1578;DHT22;57623;53.608;10.004;2024-01-30T05:29:40;4.80;99.90
1578;DHT22;57623;53.608;10.004;2024-01-30T05:32:09;4.80;99.90
1578;DHT22;57623;53.608;10.004;2024-01-30T05:34:38;4.80;99.90
1578;DHT22;57623;53.608;10.004;2024-01-30T05:37:06;4.80;99.90
1578;DHT22;57623;53.608;10.004;2024-01-30T05:39:34;4.80;99.90
1578;DHT22;57623;53.608;10.004;2024-01-30T05:42:02;4.90;99.90
1578;DHT22;57623;53.608;10.004;2024-01-30T05:44:30;4.90;99.90
1578;DHT22;57623;53.608;10.004;2024-01-30T05:46:58;4.90;99.90
1578;DHT22;57623;53.608;10.004;2024-01-30T05:49:27;4.80;99.90
1578;DHT22;57623;53.608;10.004;2024-01-30T05:51:55;4.90;99.90
1578;DHT22;57623;53.608;10.004;2024-01-30T05:54:24;4.90;99.90
1578;DHT22;57623;53.608;10.004;2024-01-30T05:56:51;4.90;99.90
1578;DHT22;57623;53.608;10.004;2024-01-30T05:59:19;4.90;99.90
1578;DHT22;57623;53.608;10.004;2024-01-30T06:01:48;4.90;99.90
1578;DHT22;57623;53.608;10.004;2024-01-30T06:04:16;4.90;99.90
1578;DHT22;57623;53.608;10.004;2024-01-30T06:06:45;5.00;99.90
1578;DHT22;57623;53.608;10.004;2024-01-30T06:09:13;5.00;99.90
1578;DHT22;57623;53.608;10.004;2024-01-30T06:11:41;5.00;99.90
1578;DHT22;57623;53.608;10.004;2024-01-30T06:14:09;5.00;99.90
1578;DHT22;57623;53.608;10.004;2024-01-30T06:16:37;5.00;99.90
1578;DHT22;57623;53.608;10.004;2024-01-30T06:19:05;5.00;99.90
1578;DHT22;57623;53.608;10.004;2024-01-30T06:21:33;5.00;99.90
1578;DHT22;57623;53.608;10.004;2024-01-30T06:24:05;5.00;99.90
1578;DHT22;57623;53.608;10.004;2024-01-30T06:26:33;5.00;99.90
1578;DHT22;57623;53.608;10.004;2024-01-30T06:29:01;5.10;99.90
1578;DHT22;57623;53.608;10.004;2024-01-30T06:31:29;5.00;99.90
1578;DHT22;57623;53.608;10.004;2024-01-30T06:33:57;5.10;99.90
1578;DHT22;57623;53.608;10.004;2024-01-30T06:36:26;5.10;99.90
1578;DHT22;57623;53.608;10.004;2024-01-30T06:38:54;5.10;99.90
1578;DHT22;57623;53.608;10.004;2024-01-30T06:41:23;5.10;99.90
1578;DHT22;57623;53.608;10.004;2024-01-30T06:43:51;5.20;99.90
1578;DHT22;57623;53.608;10.004;2024-01-30T06:46:19;5.20;99.90
1578;DHT22;57623;53.608;10.004;2024-01-30T06:48:48;5.20;99.90
1578;DHT22;57623;53.608;10.004;2024-01-30T06:51:16;5.20;99.90
1578;DHT22;57623;53.608;10.004;2024-01-30T06:53:44;5.20;99.90
1578;DHT22;57623;53.608;10.004;2024-01-30T06:56:12;5.20;99.90
1578;DHT22;57623;53.608;10.004;2024-01-30T06:58:41;5.30;99.90
1578;DHT22;57623;53.608;10.004;2024-01-30T07:01:09;5.30;99.90
1578;DHT22;57623;53.608;10.004;2024-01-30T07:03:38;5.30;99.90
1578;DHT22;57623;53.608;10.004;2024-01-30T07:06:06;5.20;99.90
1578;DHT22;57623;53.608;10.004;2024-01-30T07:08:34;5.20;99.90
1578;DHT22;57623;53.608;10.004;2024-01-30T07:11:04;5.20;99.90
1578;DHT22;57623;53.608;10.004;2024-01-30T07:13:32;5.20;99.90
1578;DHT22;57623;53.608;10.004;2024-01-30T07:16:01;5.30;99.90
1578;DHT22;57623;53.608;10.004;2024-01-30T07:18:29;5.30;99.90
1578;DHT22;57623;53.608;10.004;2024-01-30T07:20:57;5.20;99.90
1578;DHT22;57623;53.608;10.004;2024-01-30T07:23:25;5.20;99.90
1578;DHT22;57623;53.608;10.004;2024-01-30T07:25:53;5.20;99.90
1578;DHT22;57623;53.608;10.004;2024-01-30T07:28:21;5.30;99.90
1578;DHT22;57623;53.608;10.004;2024-01-30T07:30:52;5.30;99.90
1578;DHT22;57623;53.608;10.004;2024-01-30T07:33:21;5.30;99.90
1578;DHT22;57623;53.608;10.004;2024-01-30T07:35:52;5.30;99.90
1578;DHT22;57623;53.608;10.004;2024-01-30T07:38:20;5.30;99.90
1578;DHT22;57623;53.608;10.004;2024-01-30T07:40:48;5.30;99.90
1578;DHT22;57623;53.608;10.004;2024-01-30T07:43:16;5.30;99.90
1578;DHT22;57623;53.608;10.004;2024-01-30T07:45:44;5.30;99.90
1578;DHT22;57623;53.608;10.004;2024-01-30T07:48:12;5.30;99.90
1578;DHT22;57623;53.608;10.004;2024-01-30T07:50:42;5.40;99.90
1578;DHT22;57623;53.608;10.004;2024-01-30T07:53:10;5.40;99.90
1578;DHT22;57623;53.608;10.004;2024-01-30T07:55:38;5.40;99.90
1578;DHT22;57623;53.608;10.004;2024-01-30T07:58:06;5.50;99.90
1578;DHT22;57623;53.608;10.004;2024-01-30T08:00:34;5.50;99.90
1578;DHT22;57623;53.608;10.004;2024-01-30T08:03:02;5.50;99.90
1578;DHT22;57623;53.608;10.004;2024-01-30T08:05:30;5.50;99.90
1578;DHT22;57623;53.608;10.004;2024-01-30T08:07:59;5.60;99.90
1578;DHT22;57623;53.608;10.004;2024-01-30T08:10:27;5.60;99.90
1578;DHT22;57623;53.608;10.004;2024-01-30T08:12:56;5.60;99.90
1578;DHT22;57623;53.608;10.004;2024-01-30T08:15:24;5.70;99.90
1578;DHT22;57623;53.608;10.004;2024-01-30T08:17:51;5.70;99.90
1578;DHT22;57623;53.608;10.004;2024-01-30T08:20:24;5.70;99.90
1578;DHT22;57623;53.608;10.004;2024-01-30T08:22:52;5.70;99.90
1578;DHT22;57623;53.608;10.004;2024-01-30T08:25:22;5.70;99.90
1578;DHT22;57623;53.608;10.004;2024-01-30T08:27:50;5.70;99.90
1578;DHT22;57623;53.608;10.004;2024-01-30T08:30:18;5.70;99.90
1578;DHT22;57623;53.608;10.004;2024-01-30T08:32:46;5.80;99.90
1578;DHT22;57623;53.608;10.004;2024-01-30T08:35:14;5.70;99.90
1578;DHT22;57623;53.608;10.004;2024-01-30T08:37:43;5.80;99.90
1578;DHT22;57623;53.608;10.004;2024-01-30T08:40:12;5.80;99.90
1578;DHT22;57623;53.608;10.004;2024-01-30T08:42:41;5.80;99.90
1578;DHT22;57623;53.608;10.004;2024-01-30T08:45:09;5.80;99.90
1578;DHT22;57623;53.608;10.004;2024-01-30T08:47:37;5.90;99.90
1578;DHT22;57623;53.608;10.004;2024-01-30T08:50:07;5.90;99.90
1578;DHT22;57623;53.608;10.004;2024-01-30T08:52:35;5.90;99.90
1578;DHT22;57623;53.608;10.004;2024-01-30T08:55:03;5.90;99.90
1578;DHT22;57623;53.608;10.004;2024-01-30T08:57:32;6.00;99.90
1578;DHT22;57623;53.608;10.004;2024-01-30T09:00:01;6.00;99.90
1578;DHT22;57623;53.608;10.004;2024-01-30T09:02:33;6.00;99.90
1578;DHT22;57623;53.608;10.004;2024-01-30T09:05:02;6.10;99.90
1578;DHT22;57623;53.608;10.004;2024-01-30T09:07:30;6.10;99.90
1578;DHT22;57623;53.608;10.004;2024-01-30T09:09:58;6.20;99.90
1578;DHT22;57623;53.608;10.004;2024-01-30T09:12:26;6.20;99.90
1578;DHT22;57623;53.608;10.004;2024-01-30T09:14:54;6.20;99.90
1578;DHT22;57623;53.608;10.004;2024-01-30T09:17:23;6.30;99.90
1578;DHT22;57623;53.608;10.004;2024-01-30T09:19:51;6.30;99.90
1578;DHT22;57623;53.608;10.004;2024-01-30T09:22:20;6.40;99.90
1578;DHT22;57623;53.608;10.004;2024-01-30T09:24:48;6.40;99.90
1578;DHT22;57623;53.608;10.004;2024-01-30T09:27:16;6.50;99.90
1578;DHT22;57623;53.608;10.004;2024-01-30T09:29:44;6.50;99.90
1578;DHT22;57623;53.608;10.004;2024-01-30T09:32:12;6.50;99.90
1578;DHT22;57623;53.608;10.004;2024-01-30T09:34:41;6.50;99.90
1578;DHT22;57623;53.608;10.004;2024-01-30T09:37:09;6.60;99.90
1578;DHT22;57623;53.608;10.004;2024-01-30T09:39:37;6.60;99.90
1578;DHT22;57623;53.608;10.004;2024-01-30T09:42:11;6.60;99.90
1578;DHT22;57623;53.608;10.004;2024-01-30T09:44:43;6.70;99.90
1578;DHT22;57623;53.608;10.004;2024-01-30T09:47:11;6.70;99.90
1578;DHT22;57623;53.608;10.004;2024-01-30T09:49:42;6.70;99.90
1578;DHT22;57623;53.608;10.004;2024-01-30T09:52:11;6.80;99.90
1578;DHT22;57623;53.608;10.004;2024-01-30T09:54:40;6.80;99.90
1578;DHT22;57623;53.608;10.004;2024-01-30T09:57:09;6.90;99.90
1578;DHT22;57623;53.608;10.004;2024-01-30T09:59:37;6.90;99.90
1578;DHT22;57623;53.608;10.004;2024-01-30T10:02:06;7.00;99.90
1578;DHT22;57623;53.608;10.004;2024-01-30T10:04:34;7.00;99.90
1578;DHT22;57623;53.608;10.004;2024-01-30T10:07:04;7.10;99.90
1578;DHT22;57623;53.608;10.004;2024-01-30T10:09:33;7.10;99.90
1578;DHT22;57623;53.608;10.004;2024-01-30T10:12:02;7.20;99.90
1578;DHT22;57623;53.608;10.004;2024-01-30T10:14:31;7.20;99.90
1578;DHT22;57623;53.608;10.004;2024-01-30T10:16:59;7.20;99.90
1578;DHT22;57623;53.608;10.004;2024-01-30T10:19:27;7.30;99.90
1578;DHT22;57623;53.608;10.004;2024-01-30T10:21:55;7.40;99.90
1578;DHT22;57623;53.608;10.004;2024-01-30T10:24:28;7.40;99.90
1578;DHT22;57623;53.608;10.004;2024-01-30T10:26:56;7.50;99.90
1578;DHT22;57623;53.608;10.004;2024-01-30T10:29:26;7.50;99.90
1578;DHT22;57623;53.608;10.004;2024-01-30T10:32:00;7.60;99.90
1578;DHT22;57623;53.608;10.004;2024-01-30T10:34:29;7.60;99.90
1578;DHT22;57623;53.608;10.004;2024-01-30T10:37:03;7.60;99.90
1578;DHT22;57623;53.608;10.004;2024-01-30T10:39:38;7.70;99.90
1578;DHT22;57623;53.608;10.004;2024-01-30T10:42:12;7.70;99.90
1578;DHT22;57623;53.608;10.004;2024-01-30T10:44:51;7.80;99.90
1578;DHT22;57623;53.608;10.004;2024-01-30T10:47:26;7.80;99.90
1578;DHT22;57623;53.608;10.004;2024-01-30T10:49:56;7.90;99.90
1578;DHT22;57623;53.608;10.004;2024-01-30T10:52:25;7.90;99.90
1578;DHT22;57623;53.608;10.004;2024-01-30T10:54:56;7.90;99.90
1578;DHT22;57623;53.608;10.004;2024-01-30T10:57:24;8.00;99.90
1578;DHT22;57623;53.608;10.004;2024-01-30T10:59:56;8.00;99.90
1578;DHT22;57623;53.608;10.004;2024-01-30T11:02:25;8.10;99.90
1578;DHT22;57623;53.608;10.004;2024-01-30T11:04:56;8.10;99.90
1578;DHT22;57623;53.608;10.004;2024-01-30T11:07:26;8.20;99.90
1578;DHT22;57623;53.608;10.004;2024-01-30T11:10:01;8.20;99.90
1578;DHT22;57623;53.608;10.004;2024-01-30T11:12:31;8.20;99.90
1578;DHT22;57623;53.608;10.004;2024-01-30T11:15:05;8.30;99.90
1578;DHT22;57623;53.608;10.004;2024-01-30T11:17:44;8.30;99.90
1578;DHT22;57623;53.608;10.004;2024-01-30T11:20:15;8.30;99.90
1578;DHT22;57623;53.608;10.004;2024-01-30T11:22:45;8.30;99.90
1578;DHT22;57623;53.608;10.004;2024-01-30T11:25:15;8.40;99.90
1578;DHT22;57623;53.608;10.004;2024-01-30T11:27:45;8.40;99.90
1578;DHT22;57623;53.608;10.004;2024-01-30T11:30:21;8.40;99.90
1578;DHT22;57623;53.608;10.004;2024-01-30T11:33:00;8.50;99.90
1578;DHT22;57623;53.608;10.004;2024-01-30T11:35:31;8.50;99.90
1578;DHT22;57623;53.608;10.004;2024-01-30T11:38:00;8.50;99.90
1578;DHT22;57623;53.608;10.004;2024-01-30T11:40:30;8.50;99.90
1578;DHT22;57623;53.608;10.004;2024-01-30T11:43:01;8.50;99.90
1578;DHT22;57623;53.608;10.004;2024-01-30T11:45:29;8.50;99.90
1578;DHT22;57623;53.608;10.004;2024-01-30T11:47:58;8.50;99.90
1578;DHT22;57623;53.608;10.004;2024-01-30T11:50:28;8.60;99.90
1578;DHT22;57623;53.608;10.004;2024-01-30T11:52:56;8.60;99.90
1578;DHT22;57623;53.608;10.004;2024-01-30T11:55:25;8.60;99.90
1578;DHT22;57623;53.608;10.004;2024-01-30T11:58:01;8.60;99.90
1578;DHT22;57623;53.608;10.004;2024-01-30T12:00:30;8.60;99.90
1578;DHT22;57623;53.608;10.004;2024-01-30T12:03:00;8.70;99.90
1578;DHT22;57623;53.608;10.004;2024-01-30T12:05:29;8.70;99.90
1578;DHT22;57623;53.608;10.004;2024-01-30T12:07:58;8.70;99.90
1578;DHT22;57623;53.608;10.004;2024-01-30T12:10:28;8.70;99.90
1578;DHT22;57623;53.608;10.004;2024-01-30T12:12:56;8.80;99.90
1578;DHT22;57623;53.608;10.004;2024-01-30T12:15:26;8.80;99.90
1578;DHT22;57623;53.608;10.004;2024-01-30T12:18:04;8.80;99.90
1578;DHT22;57623;53.608;10.004;2024-01-30T12:20:33;8.80;99.90
1578;DHT22;57623;53.608;10.004;2024-01-30T12:23:01;8.80;99.90
1578;DHT22;57623;53.608;10.004;2024-01-30T12:25:29;8.90;99.90
1578;DHT22;57623;53.608;10.004;2024-01-30T12:27:58;8.90;99.90
1578;DHT22;57623;53.608;10.004;2024-01-30T12:30:27;8.90;99.90
1578;DHT22;57623;53.608;10.004;2024-01-30T12:32:56;8.90;99.90
1578;DHT22;57623;53.608;10.004;2024-01-30T12:35:24;9.00;99.90
1578;DHT22;57623;53.608;10.004;2024-01-30T12:37:56;9.00;99.90
1578;DHT22;57623;53.608;10.004;2024-01-30T12:40:25;9.10;99.90
1578;DHT22;57623;53.608;10.004;2024-01-30T12:42:53;9.10;99.90
1578;DHT22;57623;53.608;10.004;2024-01-30T12:45:21;9.20;99.90
1578;DHT22;57623;53.608;10.004;2024-01-30T12:47:51;9.20;99.90
1578;DHT22;57623;53.608;10.004;2024-01-30T12:50:20;9.30;99.90
1578;DHT22;57623;53.608;10.004;2024-01-30T12:52:49;9.30;99.90
1578;DHT22;57623;53.608;10.004;2024-01-30T12:55:17;9.40;99.90
1578;DHT22;57623;53.608;10.004;2024-01-30T12:57:45;9.30;99.90
1578;DHT22;57623;53.608;10.004;2024-01-30T13:00:13;9.40;99.90
1578;DHT22;57623;53.608;10.004;2024-01-30T13:02:44;9.40;99.90
1578;DHT22;57623;53.608;10.004;2024-01-30T13:05:13;9.40;99.90
1578;DHT22;57623;53.608;10.004;2024-01-30T13:07:42;9.40;99.90
1578;DHT22;57623;53.608;10.004;2024-01-30T13:10:10;9.40;99.90
1578;DHT22;57623;53.608;10.004;2024-01-30T13:12:38;9.50;99.90
1578;DHT22;57623;53.608;10.004;2024-01-30T13:15:06;9.50;99.90
1578;DHT22;57623;53.608;10.004;2024-01-30T13:17:35;9.50;99.90
1578;DHT22;57623;53.608;10.004;2024-01-30T13:20:04;9.50;99.90
1578;DHT22;57623;53.608;10.004;2024-01-30T13:22:39;9.50;99.90
1578;DHT22;57623;53.608;10.004;2024-01-30T13:25:07;9.50;99.90
1578;DHT22;57623;53.608;10.004;2024-01-30T13:27:36;9.50;99.90
1578;DHT22;57623;53.608;10.004;2024-01-30T13:30:07;9.50;99.90
1578;DHT22;57623;53.608;10.004;2024-01-30T13:32:36;9.50;99.90
1578;DHT22;57623;53.608;10.004;2024-01-30T13:35:05;9.50;99.90
1578;DHT22;57623;53.608;10.004;2024-01-30T13:37:33;9.50;99.90
1578;DHT22;57623;53.608;10.004;2024-01-30T13:40:05;9.60;99.90
1578;DHT22;57623;53.608;10.004;2024-01-30T13:42:39;9.60;99.90
1578;DHT22;57623;53.608;10.004;2024-01-30T13:45:08;9.60;99.90
1578;DHT22;57623;53.608;10.004;2024-01-30T13:47:38;9.60;99.90
1578;DHT22;57623;53.608;10.004;2024-01-30T13:50:06;9.60;99.90
1578;DHT22;57623;53.608;10.004;2024-01-30T13:52:34;9.60;99.90
1578;DHT22;57623;53.608;10.004;2024-01-30T13:55:12;9.50;99.90
1578;DHT22;57623;53.608;10.004;2024-01-30T13:57:40;9.60;99.90
1578;DHT22;57623;53.608;10.004;2024-01-30T14:00:09;9.50;99.90
1578;DHT22;57623;53.608;10.004;2024-01-30T14:02:38;9.50;99.90
1578;DHT22;57623;53.608;10.004;2024-01-30T14:05:07;9.50;99.90
1578;DHT22;57623;53.608;10.004;2024-01-30T14:07:36;9.50;99.90
1578;DHT22;57623;53.608;10.004;2024-01-30T14:10:06;9.60;99.90
1578;DHT22;57623;53.608;10.004;2024-01-30T14:12:41;9.60;99.90
1578;DHT22;57623;53.608;10.004;2024-01-30T14:15:11;9.60;99.90
1578;DHT22;57623;53.608;10.004;2024-01-30T14:17:53;9.60;99.90
1578;DHT22;57623;53.608;10.004;2024-01-30T14:20:22;9.60;99.90
1578;DHT22;57623;53.608;10.004;2024-01-30T14:22:50;9.70;99.90
1578;DHT22;57623;53.608;10.004;2024-01-30T14:25:18;9.70;99.90
1578;DHT22;57623;53.608;10.004;2024-01-30T14:27:48;9.70;99.90
1578;DHT22;57623;53.608;10.004;2024-01-30T14:30:17;9.70;99.90
1578;DHT22;57623;53.608;10.004;2024-01-30T14:32:45;9.80;99.90
1578;DHT22;57623;53.608;10.004;2024-01-30T14:35:13;9.80;99.90
1578;DHT22;57623;53.608;10.004;2024-01-30T14:37:42;9.80;99.90
1578;DHT22;57623;53.608;10.004;2024-01-30T14:40:10;9.80;99.90
1578;DHT22;57623;53.608;10.004;2024-01-30T14:42:38;9.80;99.90
1578;DHT22;57623;53.608;10.004;2024-01-30T14:45:08;9.80;99.90
1578;DHT22;57623;53.608;10.004;2024-01-30T14:47:36;9.80;99.90
1578;DHT22;57623;53.608;10.004;2024-01-30T14:50:05;9.90;99.90
1578;DHT22;57623;53.608;10.004;2024-01-30T14:52:35;9.90;99.90
1578;DHT22;57623;53.608;10.004;2024-01-30T14:55:04;9.90;99.90
1578;DHT22;57623;53.608;10.004;2024-01-30T14:57:33;9.90;99.90
1578;DHT22;57623;53.608;10.004;2024-01-30T15:00:02;9.90;99.90
1578;DHT22;57623;53.608;10.004;2024-01-30T15:02:32;9.90;99.90
1578;DHT22;57623;53.608;10.004;2024-01-30T15:05:00;10.00;99.90
1578;DHT22;57623;53.608;10.004;2024-01-30T15:07:29;10.00;99.90
1578;DHT22;57623;53.608;10.004;2024-01-30T15:10:07;10.00;99.90
1578;DHT22;57623;53.608;10.004;2024-01-30T15:12:35;10.00;99.90
1578;DHT22;57623;53.608;10.004;2024-01-30T15:17:33;10.00;99.90
1578;DHT22;57623;53.608;10.004;2024-01-30T15:20:01;10.00;99.90
1578;DHT22;57623;53.608;10.004;2024-01-30T15:22:31;10.00;99.90
1578;DHT22;57623;53.608;10.004;2024-01-30T15:24:59;10.00;99.90
1578;DHT22;57623;53.608;10.004;2024-01-30T15:27:27;10.00;99.90
1578;DHT22;57623;53.608;10.004;2024-01-30T15:29:57;10.10;99.90
1578;DHT22;57623;53.608;10.004;2024-01-30T15:32:25;10.10;99.90
1578;DHT22;57623;53.608;10.004;2024-01-30T15:34:54;10.10;99.90
1578;DHT22;57623;53.608;10.004;2024-01-30T15:37:23;10.10;99.90
1578;DHT22;57623;53.608;10.004;2024-01-30T15:39:52;10.00;99.90
1578;DHT22;57623;53.608;10.004;2024-01-30T15:42:20;10.00;99.90
1578;DHT22;57623;53.608;10.004;2024-01-30T15:44:48;10.10;99.90
1578;DHT22;57623;53.608;10.004;2024-01-30T15:47:16;10.00;99.90
1578;DHT22;57623;53.608;10.004;2024-01-30T15:49:44;10.10;99.90
1578;DHT22;57623;53.608;10.004;2024-01-30T15:52:14;10.10;99.90
1578;DHT22;57623;53.608;10.004;2024-01-30T15:54:44;10.10;99.90
1578;DHT22;57623;53.608;10.004;2024-01-30T15:57:12;10.10;99.90